Time;durP1;ratioP1;P1;durP2;ratioP2;P2;SDS_P1;SDS_P2;PMS_P1;PMS_P2;Temp;Humidity;BMP_temperature;BMP_pressure;BME280_temperature;BME280_humidity;BME280_pressure;Samples;Min_cycle;Max_cycle;Signal;HPM_P1;HPM_P2
2022/01/27 00:05:17;;;;;;;31.93;12.87;;;0.80;99.90;;;;;;5015271;28;20467;-68
2022/01/27 00:07:44;;;;;;;25.63;12.53;;;0.80;99.90;;;;;;5016568;28;20606;-68
2022/01/27 00:12:36;;;;;;;26.07;10.83;;;0.70;99.90;;;;;;5015228;28;20440;-68
2022/01/27 00:15:09;;;;;;;22.00;9.40;;;0.70;99.90;;;;;;5012198;28;20223;-66
2022/01/27 00:17:40;;;;;;;30.00;13.00;;;0.80;99.90;;;;;;5015279;28;20816;-68
2022/01/27 00:20:06;;;;;;;25.60;11.60;;;0.70;99.90;;;;;;5014714;28;20457;-68
2022/01/27 00:22:32;;;;;;;28.70;12.00;;;0.70;99.90;;;;;;5011368;28;20442;-69
2022/01/27 00:24:58;;;;;;;22.30;11.00;;;0.80;99.90;;;;;;5015103;28;20529;-68
2022/01/27 00:27:23;;;;;;;27.60;13.10;;;0.90;99.90;;;;;;5017198;28;20222;-69
2022/01/27 00:29:49;;;;;;;33.90;14.50;;;0.90;99.90;;;;;;5000182;28;20207;-68
2022/01/27 00:32:15;;;;;;;25.43;10.10;;;0.90;99.90;;;;;;5005768;28;21973;-69
2022/01/27 00:34:40;;;;;;;23.80;12.50;;;0.90;99.90;;;;;;5014310;28;20230;-68
2022/01/27 00:37:06;;;;;;;29.47;10.93;;;0.90;99.90;;;;;;5011435;28;20203;-68
2022/01/27 00:39:31;;;;;;;28.20;12.47;;;0.80;99.90;;;;;;5014247;28;20229;-68
2022/01/27 00:41:57;;;;;;;31.53;12.20;;;0.80;99.90;;;;;;4999807;28;20229;-68
2022/01/27 00:44:23;;;;;;;25.63;12.20;;;0.80;99.90;;;;;;5013526;28;20256;-68
2022/01/27 00:46:48;;;;;;;29.37;13.90;;;0.80;99.90;;;;;;5015378;28;20210;-68
2022/01/27 00:49:14;;;;;;;32.43;13.83;;;0.80;99.90;;;;;;5012201;28;20186;-69
2022/01/27 00:51:43;;;;;;;27.37;11.47;;;0.80;99.90;;;;;;5015828;28;20615;-69
2022/01/27 00:54:17;;;;;;;23.37;10.73;;;0.80;99.90;;;;;;5016344;28;20214;-68
2022/01/27 00:56:56;;;;;;;25.00;12.47;;;0.80;99.90;;;;;;5013117;28;20624;-69
2022/01/27 00:59:35;;;;;;;22.90;10.90;;;0.80;99.90;;;;;;5017215;28;20501;-68
2022/01/27 01:04:34;;;;;;;29.30;14.30;;;0.70;99.90;;;;;;5018602;28;20469;-68
2022/01/27 01:07:01;;;;;;;19.03;10.03;;;0.70;99.90;;;;;;5017908;28;20622;-68
2022/01/27 01:14:49;;;;;;;31.93;14.40;;;0.80;99.90;;;;;;5019613;28;20484;-69
2022/01/27 01:30:44;;;;;;;48.57;15.33;;;0.70;99.90;;;;;;5006626;28;20510;-69
2022/01/27 01:33:11;;;;;;;37.20;15.50;;;0.70;99.90;;;;;;5019205;28;20445;-69
2022/01/27 01:38:32;;;;;;;31.83;14.43;;;0.80;99.90;;;;;;4993954;28;20447;-69
2022/01/27 01:40:58;;;;;;;30.43;10.90;;;0.80;99.90;;;;;;5018350;28;20500;-69
2022/01/27 01:43:24;;;;;;;26.63;14.13;;;0.80;99.90;;;;;;5019402;28;20281;-68
2022/01/27 01:45:50;;;;;;;33.57;14.40;;;0.80;99.90;;;;;;5019544;28;20476;-69
2022/01/27 01:48:17;;;;;;;26.93;13.03;;;0.80;99.90;;;;;;5019995;28;20816;-69
2022/01/27 01:50:43;;;;;;;27.03;14.47;;;0.80;99.90;;;;;;5025739;28;20203;-68
2022/01/27 01:53:09;;;;;;;33.57;14.20;;;0.90;99.90;;;;;;5021629;28;20983;-69
2022/01/27 01:55:35;;;;;;;24.50;11.70;;;0.90;99.90;;;;;;5025171;28;21022;-69
2022/01/27 01:58:01;;;;;;;32.83;14.43;;;0.90;99.90;;;;;;5023397;28;20440;-69
2022/01/27 02:00:28;;;;;;;30.03;13.67;;;0.80;99.90;;;;;;5023100;28;20511;-69
2022/01/27 02:02:54;;;;;;;34.70;15.17;;;0.80;99.90;;;;;;5024134;28;20441;-68
2022/01/27 02:05:25;;;;;;;34.60;14.37;;;0.90;99.90;;;;;;5022212;28;20458;-68
2022/01/27 02:19:18;;;;;;;27.13;10.97;;;0.80;99.90;;;;;;5023301;28;20448;-69
2022/01/27 02:21:45;;;;;;;35.07;14.90;;;0.70;99.90;;;;;;5022210;28;20527;-69
2022/01/27 02:24:11;;;;;;;32.73;13.70;;;0.70;99.90;;;;;;5024155;28;20461;-69
2022/01/27 02:26:36;;;;;;;36.30;14.00;;;0.70;99.90;;;;;;5004278;28;20474;-69
2022/01/27 02:29:02;;;;;;;33.13;14.43;;;0.70;99.90;;;;;;5022121;28;20190;-69
2022/01/27 02:31:28;;;;;;;23.83;12.73;;;0.70;99.90;;;;;;5024437;28;20187;-69
2022/01/27 02:33:57;;;;;;;36.90;15.27;;;0.70;99.90;;;;;;5022505;28;20216;-69
2022/01/27 02:36:23;;;;;;;35.10;13.00;;;0.70;99.90;;;;;;5022628;28;20372;-68
2022/01/27 02:38:49;;;;;;;45.70;16.30;;;0.60;99.90;;;;;;5019573;28;20545;-69
2022/01/27 02:41:16;;;;;;;24.83;12.07;;;0.70;99.90;;;;;;5005462;28;20187;-69
2022/01/27 02:43:42;;;;;;;35.00;14.20;;;0.70;99.90;;;;;;5019825;28;20945;-69
2022/01/27 02:46:17;;;;;;;13.63;8.33;;;0.70;99.90;;;;;;5005089;28;20638;-67
2022/01/27 02:48:43;;;;;;;39.40;15.20;;;0.60;99.90;;;;;;5023715;28;20261;-69
2022/01/27 02:51:08;;;;;;;33.90;13.40;;;0.60;99.90;;;;;;5023039;28;20576;-69
2022/01/27 02:53:34;;;;;;;24.03;11.47;;;0.70;99.90;;;;;;5023056;28;20207;-68
2022/01/27 02:55:59;;;;;;;33.23;14.00;;;0.70;99.90;;;;;;5020402;28;20190;-68
2022/01/27 02:58:25;;;;;;;26.20;13.47;;;0.70;99.90;;;;;;5021153;28;20244;-69
2022/01/27 03:00:51;;;;;;;25.80;10.67;;;0.70;99.90;;;;;;5021959;28;20191;-68
2022/01/27 03:03:16;;;;;;;29.37;12.27;;;0.60;99.90;;;;;;5020822;28;20212;-68
2022/01/27 03:05:42;;;;;;;36.60;15.47;;;0.50;99.90;;;;;;5024617;28;20757;-68
2022/01/27 03:08:08;;;;;;;32.30;14.10;;;0.50;99.90;;;;;;5020845;28;20184;-69
2022/01/27 03:10:39;;;;;;;26.73;12.10;;;0.50;99.90;;;;;;5023812;28;20238;-68
2022/01/27 03:13:05;;;;;;;30.87;13.67;;;0.60;99.90;;;;;;5022471;28;20878;-69
2022/01/27 03:15:30;;;;;;;33.63;14.00;;;0.60;99.90;;;;;;5023765;28;20466;-69
2022/01/27 03:17:56;;;;;;;25.50;12.97;;;0.60;99.90;;;;;;5021702;28;20923;-68
2022/01/27 03:20:22;;;;;;;30.90;13.70;;;0.50;99.90;;;;;;5020136;28;20210;-68
2022/01/27 03:22:47;;;;;;;25.73;13.20;;;0.40;99.90;;;;;;5023414;28;20654;-68
2022/01/27 03:25:13;;;;;;;15.93;8.43;;;0.40;99.90;;;;;;5019614;28;20458;-68
2022/01/27 03:27:46;;;;;;;29.23;13.90;;;0.40;99.90;;;;;;5021958;28;20296;-68
2022/01/27 03:30:11;;;;;;;30.60;15.33;;;0.40;99.90;;;;;;5021285;28;20190;-68
2022/01/27 03:32:37;;;;;;;30.07;13.30;;;0.40;99.90;;;;;;5005883;28;20507;-68
2022/01/27 03:35:03;;;;;;;33.33;14.70;;;0.30;99.90;;;;;;5021728;28;20460;-68
2022/01/27 03:37:29;;;;;;;30.50;11.80;;;0.30;99.90;;;;;;5020442;28;20583;-68
2022/01/27 03:39:55;;;;;;;25.80;10.93;;;0.40;99.90;;;;;;5021399;28;20834;-68
2022/01/27 03:42:21;;;;;;;38.80;14.97;;;0.30;99.90;;;;;;5019639;28;20462;-68
2022/01/27 03:44:46;;;;;;;34.67;15.70;;;0.20;99.90;;;;;;5019919;28;20214;-69
2022/01/27 03:47:12;;;;;;;37.90;16.90;;;0.20;99.90;;;;;;5007189;28;20210;-68
2022/01/27 03:49:38;;;;;;;35.23;13.97;;;0.20;99.90;;;;;;5020584;28;20695;-68
2022/01/27 03:52:04;;;;;;;28.93;13.07;;;0.30;99.90;;;;;;5022327;28;20188;-68
2022/01/27 03:54:32;;;;;;;23.67;13.30;;;0.30;99.90;;;;;;5020381;28;20258;-69
2022/01/27 03:56:59;;;;;;;29.40;13.43;;;0.20;99.90;;;;;;5022387;28;20260;-69
2022/01/27 03:59:27;;;;;;;32.10;12.97;;;0.30;99.90;;;;;;5020788;28;20467;-69
2022/01/27 04:01:54;;;;;;;36.30;15.60;;;0.30;99.90;;;;;;5020599;28;20428;-68
2022/01/27 04:04:20;;;;;;;34.10;16.77;;;0.30;99.90;;;;;;5021121;28;20446;-67
2022/01/27 04:06:49;;;;;;;42.60;15.27;;;0.30;99.90;;;;;;5021083;28;20467;-68
2022/01/27 04:09:15;;;;;;;35.83;14.87;;;0.30;99.90;;;;;;5020323;28;20180;-70
2022/01/27 04:11:41;;;;;;;34.33;15.60;;;0.30;99.90;;;;;;5022587;28;20531;-69
2022/01/27 04:14:08;;;;;;;32.90;12.63;;;0.30;99.90;;;;;;5020602;28;20232;-69
2022/01/27 04:16:34;;;;;;;38.67;17.23;;;0.30;99.90;;;;;;5020621;28;20450;-70
2022/01/27 04:18:59;;;;;;;25.77;11.43;;;0.20;99.90;;;;;;5017885;28;21023;-70
2022/01/27 04:21:25;;;;;;;30.50;12.23;;;0.30;99.90;;;;;;5021875;28;20195;-69
2022/01/27 04:23:51;;;;;;;31.43;13.60;;;0.20;99.90;;;;;;5019425;28;20209;-69
2022/01/27 04:26:22;;;;;;;26.33;9.67;;;0.30;99.90;;;;;;5020132;28;20214;-69
2022/01/27 04:28:49;;;;;;;29.70;11.10;;;0.30;99.90;;;;;;5020554;28;20751;-70
2022/01/27 04:31:15;;;;;;;39.83;16.07;;;0.30;99.90;;;;;;5019283;28;20448;-69
2022/01/27 04:33:41;;;;;;;33.10;14.00;;;0.40;99.90;;;;;;5025637;28;20520;-69
2022/01/27 04:36:19;;;;;;;36.20;14.57;;;0.30;99.90;;;;;;5027603;28;20643;-68
2022/01/27 04:38:54;;;;;;;31.37;13.17;;;0.30;99.90;;;;;;5025956;28;20470;-69
2022/01/27 04:41:29;;;;;;;29.53;10.47;;;0.30;99.90;;;;;;5027734;28;22645;-69
2022/01/27 04:46:41;;;;;;;24.50;13.10;;;0.40;99.90;;;;;;5028756;28;20915;-67
2022/01/27 04:49:08;;;;;;;29.40;14.23;;;0.40;99.90;;;;;;5026275;28;20637;-69
2022/01/27 04:51:34;;;;;;;30.20;14.23;;;0.20;99.90;;;;;;5027430;28;20539;-69
2022/01/27 04:55:04;;;;;;;34.60;13.77;;;0.30;99.90;;;;;;5028240;28;20939;-69
2022/01/27 04:56:59;;;;;;;28.40;13.80;;;0.30;99.90;;;;;;5024016;28;20425;-68
2022/01/27 04:59:28;;;;;;;26.00;12.27;;;0.30;99.90;;;;;;5029433;28;20440;-69
2022/01/27 05:02:00;;;;;;;20.83;11.73;;;0.30;99.90;;;;;;5027886;28;21035;-68
2022/01/27 05:04:30;;;;;;;28.63;12.80;;;0.30;99.90;;;;;;5026545;28;20460;-68
2022/01/27 05:06:56;;;;;;;26.30;12.97;;;0.40;99.90;;;;;;5012909;28;21031;-68
2022/01/27 05:09:23;;;;;;;31.93;14.17;;;0.30;99.90;;;;;;5026028;28;20454;-68
2022/01/27 05:11:54;;;;;;;27.37;13.40;;;0.20;99.90;;;;;;5023342;28;20678;-68
2022/01/27 05:14:24;;;;;;;27.00;12.30;;;0.40;99.90;;;;;;5027122;28;20456;-68
2022/01/27 05:16:51;;;;;;;29.27;12.13;;;0.30;99.90;;;;;;5026815;28;20454;-68
2022/01/27 05:19:17;;;;;;;33.37;12.63;;;0.40;99.90;;;;;;5025784;28;20448;-69
2022/01/27 05:21:43;;;;;;;35.60;12.67;;;0.30;99.90;;;;;;5026546;28;20430;-68
2022/01/27 05:24:09;;;;;;;26.00;11.30;;;0.40;99.90;;;;;;5027847;28;20467;-68
2022/01/27 05:26:36;;;;;;;16.13;10.07;;;0.40;99.90;;;;;;5026101;28;21823;-69
2022/01/27 05:29:03;;;;;;;28.50;10.70;;;0.40;99.90;;;;;;5029629;28;20515;-67
2022/01/27 05:31:29;;;;;;;28.83;13.27;;;0.30;99.90;;;;;;5030551;28;20428;-68
2022/01/27 05:33:54;;;;;;;26.70;12.17;;;0.20;99.90;;;;;;5024769;28;20459;-68
2022/01/27 05:36:20;;;;;;;33.80;15.60;;;0.20;99.90;;;;;;5028786;28;20553;-68
2022/01/27 05:38:46;;;;;;;32.50;14.77;;;0.10;99.90;;;;;;5027825;28;20231;-68
2022/01/27 05:41:14;;;;;;;27.57;14.30;;;0.10;99.90;;;;;;5027685;28;20330;-69
2022/01/27 05:43:39;;;;;;;26.10;10.80;;;0.10;99.90;;;;;;5024661;28;20594;-68
2022/01/27 05:46:05;;;;;;;28.43;12.07;;;0.10;99.90;;;;;;5023969;28;20479;-68
2022/01/27 05:48:30;;;;;;;23.27;10.50;;;0.20;99.90;;;;;;5025133;28;20174;-68
2022/01/27 05:50:57;;;;;;;31.40;14.20;;;0.20;99.90;;;;;;5022891;28;20601;-68
2022/01/27 05:53:23;;;;;;;21.23;10.10;;;0.20;99.90;;;;;;5023815;28;20182;-68
2022/01/27 05:55:49;;;;;;;30.37;14.13;;;0.20;99.90;;;;;;5023832;28;20583;-68
2022/01/27 05:58:14;;;;;;;31.37;13.13;;;0.20;99.90;;;;;;5022723;28;20551;-69
2022/01/27 06:00:40;;;;;;;23.50;10.20;;;0.30;99.90;;;;;;5021971;28;20191;-68
2022/01/27 06:03:06;;;;;;;31.50;14.20;;;0.30;99.90;;;;;;5023575;28;20198;-68
2022/01/27 06:05:33;;;;;;;20.43;10.17;;;0.30;99.90;;;;;;5023713;28;20295;-68
2022/01/27 06:07:58;;;;;;;32.57;13.70;;;0.30;99.90;;;;;;5023951;28;20273;-68
2022/01/27 06:10:24;;;;;;;27.20;12.20;;;0.30;99.90;;;;;;5021983;28;20552;-68
2022/01/27 06:12:56;;;;;;;35.73;14.10;;;0.30;99.90;;;;;;5023614;28;20222;-68
2022/01/27 06:15:23;;;;;;;15.83;6.87;;;0.30;99.90;;;;;;5021271;28;20476;-69
2022/01/27 06:17:49;;;;;;;24.43;12.43;;;0.40;99.90;;;;;;5022271;28;20511;-68
2022/01/27 06:20:17;;;;;;;25.63;11.67;;;0.40;99.90;;;;;;5007351;28;20956;-68
2022/01/27 06:22:43;;;;;;;26.87;11.40;;;0.30;99.90;;;;;;5021000;28;20194;-69
2022/01/27 06:25:10;;;;;;;16.97;9.60;;;0.20;99.90;;;;;;5023282;28;20448;-69
2022/01/27 06:27:36;;;;;;;34.27;13.10;;;0.20;99.90;;;;;;5021442;28;20204;-69
2022/01/27 06:30:05;;;;;;;27.83;12.47;;;0.20;99.90;;;;;;5023732;28;20833;-69
2022/01/27 06:32:31;;;;;;;24.83;13.80;;;0.20;99.90;;;;;;5021153;28;20970;-70
2022/01/27 06:34:57;;;;;;;21.47;9.83;;;0.30;99.90;;;;;;5021824;28;20539;-69
2022/01/27 06:37:23;;;;;;;33.03;11.40;;;0.30;99.90;;;;;;5022241;28;20998;-69
2022/01/27 06:39:48;;;;;;;33.10;13.13;;;0.30;99.90;;;;;;5021517;28;20445;-69
2022/01/27 06:42:14;;;;;;;21.83;9.83;;;0.30;99.90;;;;;;5021938;28;20441;-69
2022/01/27 06:44:40;;;;;;;18.33;9.13;;;0.30;99.90;;;;;;5020586;28;20205;-69
2022/01/27 06:47:06;;;;;;;27.30;9.93;;;0.20;99.90;;;;;;5023278;28;20209;-69
2022/01/27 06:49:32;;;;;;;24.83;10.00;;;0.20;99.90;;;;;;5019816;28;20239;-69
2022/01/27 06:51:58;;;;;;;26.37;11.90;;;0.30;99.90;;;;;;5021191;28;20806;-69
2022/01/27 06:54:23;;;;;;;22.20;10.80;;;0.30;99.90;;;;;;5022478;28;20486;-69
2022/01/27 06:56:49;;;;;;;21.10;10.03;;;0.40;99.90;;;;;;5020750;28;21033;-69
2022/01/27 06:59:15;;;;;;;25.77;11.27;;;0.40;99.90;;;;;;5022751;28;20186;-69
2022/01/27 07:01:40;;;;;;;29.17;12.50;;;0.40;99.90;;;;;;5021547;28;20653;-69
2022/01/27 07:04:06;;;;;;;27.97;12.17;;;0.40;99.90;;;;;;5021418;28;20225;-70
2022/01/27 07:06:33;;;;;;;22.30;9.73;;;0.40;99.90;;;;;;5021082;28;20699;-69
2022/01/27 07:08:59;;;;;;;22.03;10.00;;;0.40;99.90;;;;;;5019527;28;20856;-68
2022/01/27 07:11:25;;;;;;;16.80;7.90;;;0.40;99.90;;;;;;5020287;28;20448;-71
2022/01/27 07:13:51;;;;;;;22.40;11.63;;;0.50;99.90;;;;;;5021178;28;20203;-69
2022/01/27 07:16:16;;;;;;;25.43;11.60;;;0.40;99.90;;;;;;5020326;28;20277;-67
2022/01/27 07:18:42;;;;;;;21.80;11.30;;;0.40;99.90;;;;;;5023684;28;20544;-67
2022/01/27 07:21:08;;;;;;;22.50;10.67;;;0.40;99.90;;;;;;5020345;28;20738;-68
2022/01/27 07:23:34;;;;;;;21.10;11.07;;;0.40;99.90;;;;;;5027693;28;20185;-68
2022/01/27 07:26:00;;;;;;;23.00;11.20;;;0.50;99.90;;;;;;5022662;28;20780;-69
2022/01/27 07:28:26;;;;;;;18.00;11.07;;;0.50;99.90;;;;;;5023395;28;20435;-69
2022/01/27 07:30:52;;;;;;;22.47;10.53;;;0.50;99.90;;;;;;5020744;28;20189;-69
2022/01/27 07:33:17;;;;;;;16.50;8.60;;;0.40;99.90;;;;;;5020773;28;20191;-69
2022/01/27 07:35:43;;;;;;;19.03;9.60;;;0.50;99.90;;;;;;5021863;28;20186;-69
2022/01/27 07:38:08;;;;;;;25.90;10.40;;;0.50;99.90;;;;;;5020870;28;20198;-68
2022/01/27 07:40:35;;;;;;;14.03;7.03;;;0.50;99.90;;;;;;5020978;28;20183;-68
2022/01/27 07:43:00;;;;;;;14.33;6.80;;;0.50;99.90;;;;;;5018938;28;20534;-67
2022/01/27 07:45:26;;;;;;;16.73;7.80;;;0.50;99.90;;;;;;5019973;28;20466;-68
2022/01/27 07:47:52;;;;;;;12.80;8.00;;;0.40;99.90;;;;;;5021498;28;20208;-68
2022/01/27 07:50:19;;;;;;;13.93;6.50;;;0.40;99.90;;;;;;5020753;28;20969;-68
2022/01/27 07:52:45;;;;;;;17.10;9.10;;;0.50;99.90;;;;;;5019925;28;20421;-69
2022/01/27 07:55:12;;;;;;;13.83;6.57;;;0.40;99.90;;;;;;4995732;28;20543;-68
2022/01/27 07:57:38;;;;;;;18.53;6.90;;;0.50;99.90;;;;;;5016184;28;20640;-68
2022/01/27 08:00:07;;;;;;;16.60;7.73;;;0.50;99.90;;;;;;5018561;28;20468;-69
2022/01/27 08:02:33;;;;;;;12.50;6.27;;;0.50;99.90;;;;;;5023026;28;20530;-70
2022/01/27 08:04:59;;;;;;;14.30;7.80;;;0.60;99.90;;;;;;5018931;28;20571;-68
2022/01/27 08:07:25;;;;;;;14.50;6.87;;;0.40;99.90;;;;;;5017833;28;20482;-70
2022/01/27 08:09:50;;;;;;;18.00;8.10;;;0.50;99.90;;;;;;5021246;28;20644;-68
2022/01/27 08:12:18;;;;;;;22.37;9.07;;;0.40;99.90;;;;;;5016806;28;20243;-70
2022/01/27 08:14:43;;;;;;;16.77;8.83;;;0.40;99.90;;;;;;5017996;28;20487;-70
2022/01/27 08:17:10;;;;;;;20.37;9.17;;;0.50;99.90;;;;;;5020006;28;20435;-70
2022/01/27 08:19:35;;;;;;;24.53;10.30;;;0.40;99.90;;;;;;5000561;28;20621;-71
2022/01/27 08:22:01;;;;;;;25.80;10.40;;;0.40;99.90;;;;;;5021123;28;20541;-70
2022/01/27 08:24:27;;;;;;;18.90;9.57;;;0.40;99.90;;;;;;5002060;28;20208;-71
2022/01/27 08:26:59;;;;;;;19.23;8.50;;;0.40;99.90;;;;;;5018108;28;21668;-71
2022/01/27 08:29:34;;;;;;;20.87;8.87;;;0.50;99.90;;;;;;5004397;28;20190;-71
2022/01/27 08:32:02;;;;;;;24.67;11.87;;;0.50;99.90;;;;;;5019635;28;20444;-70
2022/01/27 08:34:36;;;;;;;21.87;11.27;;;0.40;99.90;;;;;;5017745;28;20448;-69
2022/01/27 08:37:07;;;;;;;23.83;12.13;;;0.40;99.90;;;;;;5018240;28;20445;-69
2022/01/27 08:39:33;;;;;;;21.97;10.20;;;0.30;99.90;;;;;;5018533;28;20802;-70
2022/01/27 08:41:59;;;;;;;16.13;8.37;;;0.30;99.90;;;;;;5019347;28;20443;-70
2022/01/27 08:44:25;;;;;;;19.17;9.87;;;0.30;99.90;;;;;;5019089;28;20459;-69
2022/01/27 08:46:51;;;;;;;29.33;11.80;;;0.30;99.90;;;;;;5013844;28;20469;-67
2022/01/27 08:49:19;;;;;;;27.37;13.93;;;0.30;99.90;;;;;;5020426;28;20185;-68
2022/01/27 08:51:45;;;;;;;29.67;11.60;;;0.30;99.90;;;;;;4998974;28;20696;-68
2022/01/27 08:54:11;;;;;;;24.43;12.20;;;0.30;99.90;;;;;;5001624;28;20517;-69
2022/01/27 08:56:37;;;;;;;34.10;14.97;;;0.30;99.90;;;;;;5019713;28;20456;-68
2022/01/27 08:59:02;;;;;;;24.63;11.57;;;0.30;99.90;;;;;;5020294;28;20196;-70
2022/01/27 09:01:28;;;;;;;32.37;14.50;;;0.30;99.90;;;;;;5020787;28;20198;-71
2022/01/27 09:03:54;;;;;;;43.17;16.40;;;0.30;99.90;;;;;;5018464;28;20242;-70
2022/01/27 09:06:21;;;;;;;25.90;13.60;;;0.20;99.90;;;;;;5020443;28;20217;-71
2022/01/27 09:08:50;;;;;;;44.80;16.93;;;0.20;99.90;;;;;;5020414;28;20451;-70
2022/01/27 09:11:16;;;;;;;34.80;15.77;;;0.20;99.90;;;;;;5020830;28;20432;-69
2022/01/27 09:13:42;;;;;;;36.07;15.80;;;0.30;99.90;;;;;;5018771;28;20565;-70
2022/01/27 09:16:09;;;;;;;37.73;17.57;;;0.30;99.90;;;;;;5019357;28;20546;-69
2022/01/27 09:18:36;;;;;;;44.90;17.40;;;0.30;99.90;;;;;;5018894;28;20681;-70
2022/01/27 09:21:07;;;;;;;47.10;17.00;;;0.20;99.90;;;;;;5022661;28;20926;-69
2022/01/27 09:23:33;;;;;;;41.77;17.20;;;0.20;99.90;;;;;;5023020;28;20464;-70
2022/01/27 09:26:04;;;;;;;39.67;17.10;;;0.30;99.90;;;;;;5023864;28;21089;-70
2022/01/27 09:28:30;;;;;;;40.50;17.40;;;0.30;99.90;;;;;;5023339;28;20178;-70
2022/01/27 09:30:56;;;;;;;48.93;17.37;;;0.40;99.90;;;;;;5021623;28;20445;-69
2022/01/27 09:33:22;;;;;;;33.40;14.10;;;0.30;99.90;;;;;;5022032;28;20194;-69
2022/01/27 09:35:48;;;;;;;39.80;16.00;;;0.40;99.90;;;;;;5023395;28;20783;-69
2022/01/27 09:38:13;;;;;;;31.67;15.50;;;0.40;99.90;;;;;;5021106;28;20925;-70
2022/01/27 09:40:40;;;;;;;27.20;11.23;;;0.40;99.90;;;;;;5004867;28;20196;-69
2022/01/27 09:43:06;;;;;;;48.60;17.10;;;0.50;99.90;;;;;;5019275;28;20190;-69
2022/01/27 09:45:36;;;;;;;47.30;18.37;;;0.40;99.90;;;;;;5001090;28;20698;-69
2022/01/27 09:48:12;;;;;;;31.30;14.03;;;0.50;99.90;;;;;;5022551;28;20308;-70
2022/01/27 09:53:22;;;;;;;40.10;15.97;;;0.60;99.90;;;;;;5023007;28;20498;-70
2022/01/27 09:55:47;;;;;;;36.00;14.77;;;0.60;99.90;;;;;;5022393;28;20577;-70
2022/01/27 09:58:13;;;;;;;39.57;15.90;;;0.70;99.90;;;;;;5022752;28;20187;-70
2022/01/27 10:00:42;;;;;;;31.80;13.10;;;0.80;99.90;;;;;;5022136;28;20195;-70
2022/01/27 10:03:14;;;;;;;41.33;15.07;;;0.80;99.90;;;;;;5004412;28;20623;-69
2022/01/27 10:05:42;;;;;;;32.80;13.37;;;0.90;99.90;;;;;;5022938;28;20450;-69
2022/01/27 10:08:15;;;;;;;23.17;10.90;;;0.90;99.90;;;;;;5022221;28;20814;-69
2022/01/27 10:10:46;;;;;;;41.60;18.10;;;0.90;99.90;;;;;;5020965;28;20456;-70
2022/01/27 10:13:27;;;;;;;35.90;13.20;;;1.00;99.90;;;;;;5023131;28;20429;-70
2022/01/27 10:15:54;;;;;;;38.30;16.77;;;0.90;99.90;;;;;;5019246;28;20483;-69
2022/01/27 10:18:22;;;;;;;45.77;17.77;;;0.90;99.90;;;;;;5023442;28;20817;-70
2022/01/27 10:21:03;;;;;;;41.67;18.80;;;1.00;99.90;;;;;;5019319;28;20502;-69
2022/01/27 10:23:33;;;;;;;34.03;17.43;;;1.00;99.90;;;;;;5022576;28;20456;-70
2022/01/27 10:26:12;;;;;;;31.43;12.70;;;1.10;99.90;;;;;;5025444;28;20434;-71
2022/01/27 10:28:51;;;;;;;37.23;16.50;;;1.10;99.90;;;;;;5018055;28;20451;-70
2022/01/27 10:31:20;;;;;;;37.10;15.90;;;1.10;99.90;;;;;;5021189;28;20524;-70
2022/01/27 10:33:50;;;;;;;37.60;17.20;;;1.10;99.90;;;;;;5022610;28;20473;-69
2022/01/27 10:36:18;;;;;;;37.30;16.60;;;1.10;99.90;;;;;;5021654;28;20453;-71
2022/01/27 10:38:44;;;;;;;37.57;15.00;;;1.20;99.90;;;;;;5023400;28;20536;-71
2022/01/27 10:41:10;;;;;;;37.73;16.40;;;1.30;99.90;;;;;;5021228;28;20554;-69
2022/01/27 10:43:35;;;;;;;31.73;15.03;;;1.40;99.90;;;;;;5025491;28;20503;-70
2022/01/27 10:48:48;;;;;;;38.10;15.57;;;1.30;99.90;;;;;;5022671;28;20250;-69
2022/01/27 10:51:24;;;;;;;38.90;16.07;;;1.40;99.90;;;;;;5022623;28;20432;-70
2022/01/27 10:54:01;;;;;;;33.50;14.93;;;1.40;99.90;;;;;;5019330;28;20473;-69
2022/01/27 10:56:29;;;;;;;30.80;14.60;;;1.50;99.90;;;;;;5022688;28;20524;-70
2022/01/27 10:58:56;;;;;;;30.23;13.90;;;1.50;99.90;;;;;;5022335;28;20447;-69
2022/01/27 11:01:27;;;;;;;34.33;15.37;;;1.50;99.90;;;;;;5020321;28;20450;-69
2022/01/27 11:03:53;;;;;;;33.13;14.80;;;1.40;99.90;;;;;;5022073;28;20488;-70
2022/01/27 11:06:25;;;;;;;31.87;14.97;;;1.40;99.90;;;;;;5018909;28;20491;-69
2022/01/27 11:08:54;;;;;;;18.70;11.53;;;1.40;99.90;;;;;;5020700;28;20444;-68
2022/01/27 11:11:21;;;;;;;30.40;15.30;;;1.50;99.90;;;;;;5005411;28;20446;-69
2022/01/27 11:13:47;;;;;;;34.47;15.33;;;1.50;99.90;;;;;;5021974;28;20555;-69
2022/01/27 11:16:16;;;;;;;33.80;14.93;;;1.50;99.90;;;;;;5020512;28;20948;-70
2022/01/27 11:18:45;;;;;;;28.60;14.57;;;1.60;99.90;;;;;;5017943;28;20543;-69
2022/01/27 11:21:23;;;;;;;21.37;10.70;;;1.60;99.90;;;;;;5019061;28;21015;-70
2022/01/27 11:26:46;;;;;;;25.07;13.93;;;1.80;99.90;;;;;;5006382;28;20506;-68
2022/01/27 11:29:14;;;;;;;29.17;13.50;;;1.90;99.90;;;;;;5021121;28;20517;-68
2022/01/27 11:31:50;;;;;;;30.13;12.70;;;2.00;99.90;;;;;;5020575;28;21241;-68
2022/01/27 11:34:16;;;;;;;27.53;14.03;;;2.10;99.90;;;;;;5022291;28;20471;-69
2022/01/27 11:37:00;;;;;;;24.10;13.10;;;2.20;99.90;;;;;;5021650;28;20534;-69
2022/01/27 11:39:47;;;;;;;34.50;16.20;;;2.30;99.90;;;;;;5018407;28;20209;-68
2022/01/27 11:42:13;;;;;;;28.90;13.53;;;2.30;99.90;;;;;;5019647;28;20493;-69
2022/01/27 11:44:42;;;;;;;27.10;13.40;;;2.30;99.90;;;;;;5019861;28;20899;-68
2022/01/27 11:47:09;;;;;;;33.83;14.90;;;2.40;99.90;;;;;;5020379;28;20532;-68
2022/01/27 11:50:00;;;;;;;29.93;14.93;;;2.40;99.90;;;;;;5001349;28;20819;-69
2022/01/27 11:52:31;;;;;;;26.40;13.77;;;2.40;99.90;;;;;;5013380;28;20444;-69
2022/01/27 11:55:18;;;;;;;24.07;13.27;;;2.40;99.90;;;;;;5020659;28;20466;-70
2022/01/27 11:57:45;;;;;;;23.67;13.00;;;2.40;99.90;;;;;;5022143;28;20438;-69
2022/01/27 12:00:16;;;;;;;20.67;10.47;;;2.40;99.90;;;;;;5018375;28;21013;-69
2022/01/27 12:03:02;;;;;;;25.63;12.60;;;2.40;99.90;;;;;;5021308;28;20488;-69
2022/01/27 12:05:33;;;;;;;32.67;12.70;;;2.40;99.90;;;;;;5020269;28;21031;-69
2022/01/27 12:08:17;;;;;;;23.23;12.07;;;2.50;99.90;;;;;;5019920;28;20546;-69
2022/01/27 12:10:47;;;;;;;25.27;13.10;;;2.60;99.90;;;;;;5019908;28;21053;-68
2022/01/27 12:13:30;;;;;;;28.57;13.70;;;2.50;99.90;;;;;;5016641;28;20514;-68
2022/01/27 12:19:09;;;;;;;19.93;10.30;;;2.60;99.90;;;;;;5020753;28;20454;-69
2022/01/27 12:21:59;;;;;;;17.13;10.33;;;2.60;99.90;;;;;;5021074;28;20437;-68
2022/01/27 12:24:28;;;;;;;22.27;11.30;;;2.50;99.90;;;;;;5022381;28;20468;-68
2022/01/27 12:27:17;;;;;;;31.10;14.50;;;2.40;99.90;;;;;;5018142;28;20982;-69
2022/01/27 12:29:48;;;;;;;21.70;11.60;;;2.50;99.90;;;;;;5012722;28;20544;-68
2022/01/27 12:32:16;;;;;;;28.03;13.23;;;2.50;99.90;;;;;;5018855;28;20446;-69
2022/01/27 12:34:48;;;;;;;23.17;12.03;;;2.50;99.90;;;;;;5020966;28;20768;-67
2022/01/27 12:37:14;;;;;;;28.37;13.97;;;2.60;99.90;;;;;;5015843;28;20808;-68
2022/01/27 12:39:54;;;;;;;25.80;13.63;;;2.50;99.90;;;;;;5018766;28;20439;-68
2022/01/27 12:42:26;;;;;;;27.77;13.23;;;2.50;99.90;;;;;;5019151;28;20440;-69
2022/01/27 12:45:01;;;;;;;33.03;13.90;;;2.60;99.90;;;;;;5019017;28;20508;-69
2022/01/27 12:47:29;;;;;;;23.47;12.03;;;2.70;99.90;;;;;;5019288;28;20468;-69
2022/01/27 12:50:05;;;;;;;20.20;11.20;;;2.80;99.90;;;;;;5021706;28;20492;-69
2022/01/27 12:52:38;;;;;;;24.47;13.27;;;2.80;99.90;;;;;;5021660;28;20492;-69
2022/01/27 12:55:05;;;;;;;26.03;14.60;;;2.80;99.90;;;;;;5017136;28;20574;-69
2022/01/27 12:57:32;;;;;;;30.03;14.43;;;2.70;99.90;;;;;;5023886;28;20441;-69
2022/01/27 13:00:00;;;;;;;20.87;11.97;;;2.90;99.90;;;;;;5023883;28;20450;-68
2022/01/27 13:02:27;;;;;;;23.43;13.27;;;3.30;99.90;;;;;;5025808;28;20450;-69
2022/01/27 13:04:55;;;;;;;23.13;12.43;;;3.70;99.90;;;;;;5026420;28;21871;-68
2022/01/27 13:07:23;;;;;;;24.67;13.33;;;3.60;99.90;;;;;;5022457;28;20471;-69
2022/01/27 13:10:01;;;;;;;25.57;12.23;;;3.30;99.90;;;;;;5021359;28;20445;-70
2022/01/27 13:12:33;;;;;;;19.30;10.03;;;3.20;99.90;;;;;;5025342;28;20481;-68
2022/01/27 13:15:07;;;;;;;16.87;9.77;;;3.00;99.90;;;;;;5021808;28;20540;-68
2022/01/27 13:17:48;;;;;;;17.83;10.50;;;2.90;99.90;;;;;;5024899;28;20541;-69
2022/01/27 13:20:24;;;;;;;18.63;9.40;;;3.00;99.90;;;;;;5023616;28;20486;-69
2022/01/27 13:22:58;;;;;;;18.33;9.83;;;3.00;99.90;;;;;;5024171;28;20441;-68
2022/01/27 13:25:57;;;;;;;23.47;13.00;;;3.00;99.90;;;;;;5026011;28;20476;-69
2022/01/27 13:28:28;;;;;;;25.67;13.30;;;3.00;99.90;;;;;;5024851;28;20449;-69
2022/01/27 13:30:58;;;;;;;24.87;13.83;;;3.00;99.90;;;;;;5022883;28;20542;-70
2022/01/27 13:33:26;;;;;;;19.13;11.53;;;3.00;99.90;;;;;;5024062;28;20956;-68
2022/01/27 13:35:54;;;;;;;24.03;12.93;;;3.00;99.90;;;;;;5000177;28;20447;-69
2022/01/27 13:38:30;;;;;;;28.73;11.83;;;3.10;99.90;;;;;;5023947;28;20579;-69
2022/01/27 13:41:22;;;;;;;24.90;13.00;;;3.20;99.90;;;;;;5021789;28;20924;-69